sensor_id;sensor_type;location;lat;lon;timestamp;temperature;humidity
10538;DHT22;5317;49.048;8.468;2024-03-08T00:00:00;11.30;69.50
10538;DHT22;5317;49.048;8.468;2024-03-08T00:02:35;11.30;70.30
10538;DHT22;5317;49.048;8.468;2024-03-08T00:05:02;11.30;69.60
10538;DHT22;5317;49.048;8.468;2024-03-08T00:07:29;11.30;69.60
10538;DHT22;5317;49.048;8.468;2024-03-08T00:09:56;11.20;69.60
10538;DHT22;5317;49.048;8.468;2024-03-08T00:12:23;11.20;69.50
10538;DHT22;5317;49.048;8.468;2024-03-08T00:14:51;11.20;69.60
10538;DHT22;5317;49.048;8.468;2024-03-08T00:17:19;11.20;69.60
10538;DHT22;5317;49.048;8.468;2024-03-08T00:19:48;11.20;69.70
10538;DHT22;5317;49.048;8.468;2024-03-08T00:22:15;11.20;69.70
10538;DHT22;5317;49.048;8.468;2024-03-08T00:24:42;11.10;69.60
10538;DHT22;5317;49.048;8.468;2024-03-08T00:27:09;11.10;69.50
10538;DHT22;5317;49.048;8.468;2024-03-08T00:29:37;11.20;69.70
10538;DHT22;5317;49.048;8.468;2024-03-08T00:32:04;11.10;69.70
10538;DHT22;5317;49.048;8.468;2024-03-08T00:34:35;11.10;69.60
10538;DHT22;5317;49.048;8.468;2024-03-08T00:37:02;11.10;69.70
10538;DHT22;5317;49.048;8.468;2024-03-08T00:39:29;11.10;69.70
10538;DHT22;5317;49.048;8.468;2024-03-08T00:41:56;11.10;69.70
10538;DHT22;5317;49.048;8.468;2024-03-08T00:44:23;11.10;69.60
10538;DHT22;5317;49.048;8.468;2024-03-08T00:46:50;11.00;69.60
10538;DHT22;5317;49.048;8.468;2024-03-08T00:49:17;11.00;69.60
10538;DHT22;5317;49.048;8.468;2024-03-08T00:51:45;11.00;69.60
10538;DHT22;5317;49.048;8.468;2024-03-08T00:54:12;11.00;69.60
10538;DHT22;5317;49.048;8.468;2024-03-08T00:56:38;11.00;69.70
10538;DHT22;5317;49.048;8.468;2024-03-08T00:59:07;11.00;69.70
10538;DHT22;5317;49.048;8.468;2024-03-08T01:01:33;10.90;69.60
10538;DHT22;5317;49.048;8.468;2024-03-08T01:04:00;10.90;69.50
10538;DHT22;5317;49.048;8.468;2024-03-08T01:06:27;10.90;69.70
10538;DHT22;5317;49.048;8.468;2024-03-08T01:08:55;10.90;69.70
10538;DHT22;5317;49.048;8.468;2024-03-08T01:11:22;10.90;69.80
10538;DHT22;5317;49.048;8.468;2024-03-08T01:13:49;10.80;69.70
10538;DHT22;5317;49.048;8.468;2024-03-08T01:16:16;10.80;69.80
10538;DHT22;5317;49.048;8.468;2024-03-08T01:18:43;10.70;69.70
10538;DHT22;5317;49.048;8.468;2024-03-08T01:21:10;10.70;69.70
10538;DHT22;5317;49.048;8.468;2024-03-08T01:23:37;10.60;69.80
10538;DHT22;5317;49.048;8.468;2024-03-08T01:26:05;10.60;69.90
10538;DHT22;5317;49.048;8.468;2024-03-08T01:28:32;10.50;69.90
10538;DHT22;5317;49.048;8.468;2024-03-08T01:31:00;10.50;70.10
10538;DHT22;5317;49.048;8.468;2024-03-08T01:33:28;10.40;70.20
10538;DHT22;5317;49.048;8.468;2024-03-08T01:35:57;10.40;70.30
10538;DHT22;5317;49.048;8.468;2024-03-08T01:38:23;10.30;70.40
10538;DHT22;5317;49.048;8.468;2024-03-08T01:40:50;10.30;70.50
10538;DHT22;5317;49.048;8.468;2024-03-08T01:43:20;10.20;70.60
10538;DHT22;5317;49.048;8.468;2024-03-08T01:45:47;10.30;70.70
10538;DHT22;5317;49.048;8.468;2024-03-08T01:48:14;10.20;70.60
10538;DHT22;5317;49.048;8.468;2024-03-08T01:50:42;10.20;70.60
10538;DHT22;5317;49.048;8.468;2024-03-08T01:53:10;10.20;70.70
10538;DHT22;5317;49.048;8.468;2024-03-08T01:55:38;10.20;71.00
10538;DHT22;5317;49.048;8.468;2024-03-08T01:58:06;10.20;71.00
10538;DHT22;5317;49.048;8.468;2024-03-08T02:00:35;10.10;70.80
10538;DHT22;5317;49.048;8.468;2024-03-08T02:03:03;10.10;70.80
10538;DHT22;5317;49.048;8.468;2024-03-08T02:05:31;10.10;71.00
10538;DHT22;5317;49.048;8.468;2024-03-08T02:07:58;10.00;70.90
10538;DHT22;5317;49.048;8.468;2024-03-08T02:10:25;10.00;70.90
10538;DHT22;5317;49.048;8.468;2024-03-08T02:12:52;10.00;71.00
10538;DHT22;5317;49.048;8.468;2024-03-08T02:15:19;10.00;71.10
10538;DHT22;5317;49.048;8.468;2024-03-08T02:17:48;9.90;72.30
10538;DHT22;5317;49.048;8.468;2024-03-08T02:20:15;9.90;72.20
10538;DHT22;5317;49.048;8.468;2024-03-08T02:22:43;9.90;72.30
10538;DHT22;5317;49.048;8.468;2024-03-08T02:25:11;9.80;72.30
10538;DHT22;5317;49.048;8.468;2024-03-08T02:27:38;9.80;72.40
10538;DHT22;5317;49.048;8.468;2024-03-08T02:30:05;9.80;72.50
10538;DHT22;5317;49.048;8.468;2024-03-08T02:32:32;9.80;72.50
10538;DHT22;5317;49.048;8.468;2024-03-08T02:34:59;9.70;72.30
10538;DHT22;5317;49.048;8.468;2024-03-08T02:37:26;9.70;72.90
10538;DHT22;5317;49.048;8.468;2024-03-08T02:39:55;9.70;72.60
10538;DHT22;5317;49.048;8.468;2024-03-08T02:42:22;9.70;72.70
10538;DHT22;5317;49.048;8.468;2024-03-08T02:44:49;9.70;72.90
10538;DHT22;5317;49.048;8.468;2024-03-08T02:47:16;9.60;72.80
10538;DHT22;5317;49.048;8.468;2024-03-08T02:49:43;9.60;72.80
10538;DHT22;5317;49.048;8.468;2024-03-08T02:52:10;9.60;72.80
10538;DHT22;5317;49.048;8.468;2024-03-08T02:54:36;9.60;72.80
10538;DHT22;5317;49.048;8.468;2024-03-08T02:57:05;9.50;72.70
10538;DHT22;5317;49.048;8.468;2024-03-08T02:59:33;9.50;72.90
10538;DHT22;5317;49.048;8.468;2024-03-08T03:02:00;9.50;72.70
10538;DHT22;5317;49.048;8.468;2024-03-08T03:04:27;9.50;72.60
10538;DHT22;5317;49.048;8.468;2024-03-08T03:06:54;9.50;72.50
10538;DHT22;5317;49.048;8.468;2024-03-08T03:09:21;9.50;72.40
10538;DHT22;5317;49.048;8.468;2024-03-08T03:11:53;9.50;72.50
10538;DHT22;5317;49.048;8.468;2024-03-08T03:14:21;9.50;72.40
10538;DHT22;5317;49.048;8.468;2024-03-08T03:16:48;9.50;72.40
10538;DHT22;5317;49.048;8.468;2024-03-08T03:19:15;9.50;72.40
10538;DHT22;5317;49.048;8.468;2024-03-08T03:21:42;9.50;72.40
10538;DHT22;5317;49.048;8.468;2024-03-08T03:24:09;9.50;72.40
10538;DHT22;5317;49.048;8.468;2024-03-08T03:26:36;9.50;72.40
10538;DHT22;5317;49.048;8.468;2024-03-08T03:29:05;9.50;72.40
10538;DHT22;5317;49.048;8.468;2024-03-08T03:31:35;9.50;72.40
10538;DHT22;5317;49.048;8.468;2024-03-08T03:34:02;9.40;72.40
10538;DHT22;5317;49.048;8.468;2024-03-08T03:36:30;9.50;72.50
10538;DHT22;5317;49.048;8.468;2024-03-08T03:38:57;9.40;72.40
10538;DHT22;5317;49.048;8.468;2024-03-08T03:41:34;9.40;72.30
10538;DHT22;5317;49.048;8.468;2024-03-08T03:44:01;9.40;72.30
10538;DHT22;5317;49.048;8.468;2024-03-08T03:46:28;9.30;73.10
10538;DHT22;5317;49.048;8.468;2024-03-08T03:48:56;9.30;72.30
10538;DHT22;5317;49.048;8.468;2024-03-08T03:51:23;9.30;72.40
10538;DHT22;5317;49.048;8.468;2024-03-08T03:53:50;9.30;73.20
10538;DHT22;5317;49.048;8.468;2024-03-08T03:56:17;9.20;72.30
10538;DHT22;5317;49.048;8.468;2024-03-08T03:58:43;9.20;72.50
10538;DHT22;5317;49.048;8.468;2024-03-08T04:01:10;9.20;72.70
10538;DHT22;5317;49.048;8.468;2024-03-08T04:03:37;9.20;72.70
10538;DHT22;5317;49.048;8.468;2024-03-08T04:06:10;9.10;72.60
10538;DHT22;5317;49.048;8.468;2024-03-08T04:08:36;9.10;72.60
10538;DHT22;5317;49.048;8.468;2024-03-08T04:11:03;9.10;72.60
10538;DHT22;5317;49.048;8.468;2024-03-08T04:13:30;9.00;72.50
10538;DHT22;5317;49.048;8.468;2024-03-08T04:15:57;9.00;72.50
10538;DHT22;5317;49.048;8.468;2024-03-08T04:18:24;9.00;72.50
10538;DHT22;5317;49.048;8.468;2024-03-08T04:20:51;9.00;72.50
10538;DHT22;5317;49.048;8.468;2024-03-08T04:23:19;9.00;72.40
10538;DHT22;5317;49.048;8.468;2024-03-08T04:25:46;9.00;72.30
10538;DHT22;5317;49.048;8.468;2024-03-08T04:28:13;9.00;72.30
10538;DHT22;5317;49.048;8.468;2024-03-08T04:30:40;9.00;72.30
10538;DHT22;5317;49.048;8.468;2024-03-08T04:33:06;9.00;72.40
10538;DHT22;5317;49.048;8.468;2024-03-08T04:35:34;8.90;72.20
10538;DHT22;5317;49.048;8.468;2024-03-08T04:38:01;8.90;72.20
10538;DHT22;5317;49.048;8.468;2024-03-08T04:40:32;8.90;72.20
10538;DHT22;5317;49.048;8.468;2024-03-08T04:42:59;8.90;72.30
10538;DHT22;5317;49.048;8.468;2024-03-08T04:45:26;8.90;72.20
10538;DHT22;5317;49.048;8.468;2024-03-08T04:47:53;8.90;72.30
10538;DHT22;5317;49.048;8.468;2024-03-08T04:50:20;8.80;72.30
10538;DHT22;5317;49.048;8.468;2024-03-08T04:52:47;8.80;72.30
10538;DHT22;5317;49.048;8.468;2024-03-08T04:55:14;8.80;72.30
10538;DHT22;5317;49.048;8.468;2024-03-08T04:57:42;8.70;72.20
10538;DHT22;5317;49.048;8.468;2024-03-08T05:00:10;8.70;72.20
10538;DHT22;5317;49.048;8.468;2024-03-08T05:02:37;8.60;72.20
10538;DHT22;5317;49.048;8.468;2024-03-08T05:05:05;8.60;72.30
10538;DHT22;5317;49.048;8.468;2024-03-08T05:07:32;8.60;72.30
10538;DHT22;5317;49.048;8.468;2024-03-08T05:10:00;8.60;72.30
10538;DHT22;5317;49.048;8.468;2024-03-08T05:12:27;8.60;72.30
10538;DHT22;5317;49.048;8.468;2024-03-08T05:14:56;8.60;72.50
10538;DHT22;5317;49.048;8.468;2024-03-08T05:17:22;8.60;73.20
10538;DHT22;5317;49.048;8.468;2024-03-08T05:19:50;8.60;72.50
10538;DHT22;5317;49.048;8.468;2024-03-08T05:22:16;8.60;72.40
10538;DHT22;5317;49.048;8.468;2024-03-08T05:24:44;8.50;72.40
10538;DHT22;5317;49.048;8.468;2024-03-08T05:27:11;8.60;72.50
10538;DHT22;5317;49.048;8.468;2024-03-08T05:29:38;8.50;73.00
10538;DHT22;5317;49.048;8.468;2024-03-08T05:32:07;8.50;72.30
10538;DHT22;5317;49.048;8.468;2024-03-08T05:34:35;8.60;72.40
10538;DHT22;5317;49.048;8.468;2024-03-08T05:37:02;8.50;72.20
10538;DHT22;5317;49.048;8.468;2024-03-08T05:39:28;8.50;72.50
10538;DHT22;5317;49.048;8.468;2024-03-08T05:41:55;8.60;72.40
10538;DHT22;5317;49.048;8.468;2024-03-08T05:44:22;8.50;72.20
10538;DHT22;5317;49.048;8.468;2024-03-08T05:46:50;8.50;72.90
10538;DHT22;5317;49.048;8.468;2024-03-08T05:49:20;8.50;72.10
10538;DHT22;5317;49.048;8.468;2024-03-08T05:51:47;8.60;72.20
10538;DHT22;5317;49.048;8.468;2024-03-08T05:54:14;8.50;72.20
10538;DHT22;5317;49.048;8.468;2024-03-08T05:56:41;8.50;72.10
10538;DHT22;5317;49.048;8.468;2024-03-08T05:59:09;8.50;72.20
10538;DHT22;5317;49.048;8.468;2024-03-08T06:01:36;8.50;73.10
10538;DHT22;5317;49.048;8.468;2024-03-08T06:04:04;8.50;72.10
10538;DHT22;5317;49.048;8.468;2024-03-08T06:06:32;8.50;72.10
10538;DHT22;5317;49.048;8.468;2024-03-08T06:08:59;8.50;72.10
10538;DHT22;5317;49.048;8.468;2024-03-08T06:11:26;8.50;72.00
10538;DHT22;5317;49.048;8.468;2024-03-08T06:13:54;8.50;72.90
10538;DHT22;5317;49.048;8.468;2024-03-08T06:16:25;8.60;74.60
10538;DHT22;5317;49.048;8.468;2024-03-08T06:18:55;8.60;73.90
10538;DHT22;5317;49.048;8.468;2024-03-08T06:21:22;8.60;74.40
10538;DHT22;5317;49.048;8.468;2024-03-08T06:23:53;8.70;74.30
10538;DHT22;5317;49.048;8.468;2024-03-08T06:26:23;8.70;73.90
10538;DHT22;5317;49.048;8.468;2024-03-08T06:28:50;8.80;73.80
10538;DHT22;5317;49.048;8.468;2024-03-08T06:31:17;8.90;73.20
10538;DHT22;5317;49.048;8.468;2024-03-08T06:33:45;8.90;73.70
10538;DHT22;5317;49.048;8.468;2024-03-08T06:36:12;8.90;73.50
10538;DHT22;5317;49.048;8.468;2024-03-08T06:38:40;8.90;73.40
10538;DHT22;5317;49.048;8.468;2024-03-08T06:41:09;9.00;73.40
10538;DHT22;5317;49.048;8.468;2024-03-08T06:43:41;9.00;72.90
10538;DHT22;5317;49.048;8.468;2024-03-08T06:46:08;9.10;73.10
10538;DHT22;5317;49.048;8.468;2024-03-08T06:48:35;9.20;73.50
10538;DHT22;5317;49.048;8.468;2024-03-08T06:51:03;9.20;73.30
10538;DHT22;5317;49.048;8.468;2024-03-08T06:53:30;9.30;72.80
10538;DHT22;5317;49.048;8.468;2024-03-08T06:55:57;9.30;72.80
10538;DHT22;5317;49.048;8.468;2024-03-08T06:58:25;9.30;72.30
10538;DHT22;5317;49.048;8.468;2024-03-08T07:00:53;9.30;71.80
10538;DHT22;5317;49.048;8.468;2024-03-08T07:03:24;9.30;71.70
10538;DHT22;5317;49.048;8.468;2024-03-08T07:05:52;9.40;71.80
10538;DHT22;5317;49.048;8.468;2024-03-08T07:08:19;9.30;71.70
10538;DHT22;5317;49.048;8.468;2024-03-08T07:10:47;9.40;71.80
10538;DHT22;5317;49.048;8.468;2024-03-08T07:13:14;9.30;71.40
10538;DHT22;5317;49.048;8.468;2024-03-08T07:15:43;9.40;71.70
10538;DHT22;5317;49.048;8.468;2024-03-08T07:18:11;9.40;71.70
10538;DHT22;5317;49.048;8.468;2024-03-08T07:20:40;9.40;71.80
10538;DHT22;5317;49.048;8.468;2024-03-08T07:23:07;9.50;71.70
10538;DHT22;5317;49.048;8.468;2024-03-08T07:25:36;9.40;71.60
10538;DHT22;5317;49.048;8.468;2024-03-08T07:28:04;9.40;71.70
10538;DHT22;5317;49.048;8.468;2024-03-08T07:30:33;9.50;71.70
10538;DHT22;5317;49.048;8.468;2024-03-08T07:33:18;9.50;71.70
10538;DHT22;5317;49.048;8.468;2024-03-08T07:35:45;9.50;71.70
10538;DHT22;5317;49.048;8.468;2024-03-08T07:38:12;9.60;71.70
10538;DHT22;5317;49.048;8.468;2024-03-08T07:40:41;9.70;72.60
10538;DHT22;5317;49.048;8.468;2024-03-08T07:43:10;9.60;71.70
10538;DHT22;5317;49.048;8.468;2024-03-08T07:45:37;9.70;71.90
10538;DHT22;5317;49.048;8.468;2024-03-08T07:48:05;9.70;71.90
10538;DHT22;5317;49.048;8.468;2024-03-08T07:50:36;9.80;71.70
10538;DHT22;5317;49.048;8.468;2024-03-08T07:53:04;9.90;71.60
10538;DHT22;5317;49.048;8.468;2024-03-08T07:55:32;9.90;71.90
10538;DHT22;5317;49.048;8.468;2024-03-08T07:57:59;10.00;70.50
10538;DHT22;5317;49.048;8.468;2024-03-08T08:00:26;10.10;70.20
10538;DHT22;5317;49.048;8.468;2024-03-08T08:02:53;10.00;69.80
10538;DHT22;5317;49.048;8.468;2024-03-08T08:05:20;10.00;69.80
10538;DHT22;5317;49.048;8.468;2024-03-08T08:07:48;10.10;70.10
10538;DHT22;5317;49.048;8.468;2024-03-08T08:10:15;10.20;70.10
10538;DHT22;5317;49.048;8.468;2024-03-08T08:12:44;10.30;69.20
10538;DHT22;5317;49.048;8.468;2024-03-08T08:15:12;10.20;69.30
10538;DHT22;5317;49.048;8.468;2024-03-08T08:17:41;10.30;69.50
10538;DHT22;5317;49.048;8.468;2024-03-08T08:20:09;10.20;68.50
10538;DHT22;5317;49.048;8.468;2024-03-08T08:22:37;10.30;69.20
10538;DHT22;5317;49.048;8.468;2024-03-08T08:25:07;10.30;69.00
10538;DHT22;5317;49.048;8.468;2024-03-08T08:27:34;10.40;69.10
10538;DHT22;5317;49.048;8.468;2024-03-08T08:30:02;10.40;68.80
10538;DHT22;5317;49.048;8.468;2024-03-08T08:32:33;10.50;69.10
10538;DHT22;5317;49.048;8.468;2024-03-08T08:35:00;10.50;68.90
10538;DHT22;5317;49.048;8.468;2024-03-08T08:37:28;10.40;68.20
10538;DHT22;5317;49.048;8.468;2024-03-08T08:39:55;10.40;68.50
10538;DHT22;5317;49.048;8.468;2024-03-08T08:42:23;10.40;68.70
10538;DHT22;5317;49.048;8.468;2024-03-08T08:44:51;10.30;68.20
10538;DHT22;5317;49.048;8.468;2024-03-08T08:47:18;10.30;68.50
10538;DHT22;5317;49.048;8.468;2024-03-08T08:49:45;10.30;68.70
10538;DHT22;5317;49.048;8.468;2024-03-08T08:52:12;10.40;68.70
10538;DHT22;5317;49.048;8.468;2024-03-08T08:54:41;10.40;68.80
10538;DHT22;5317;49.048;8.468;2024-03-08T08:57:08;10.50;68.60
10538;DHT22;5317;49.048;8.468;2024-03-08T08:59:36;10.50;68.40
10538;DHT22;5317;49.048;8.468;2024-03-08T09:02:05;10.50;68.50
10538;DHT22;5317;49.048;8.468;2024-03-08T09:04:32;10.60;68.30
10538;DHT22;5317;49.048;8.468;2024-03-08T09:06:59;10.70;68.50
10538;DHT22;5317;49.048;8.468;2024-03-08T09:09:27;10.70;67.90
10538;DHT22;5317;49.048;8.468;2024-03-08T09:11:55;10.80;68.20
10538;DHT22;5317;49.048;8.468;2024-03-08T09:14:22;10.80;68.10
10538;DHT22;5317;49.048;8.468;2024-03-08T09:16:52;10.80;68.00
10538;DHT22;5317;49.048;8.468;2024-03-08T09:19:19;10.80;68.00
10538;DHT22;5317;49.048;8.468;2024-03-08T09:21:48;10.90;67.90
10538;DHT22;5317;49.048;8.468;2024-03-08T09:24:17;10.90;68.10
10538;DHT22;5317;49.048;8.468;2024-03-08T09:26:43;11.00;68.10
10538;DHT22;5317;49.048;8.468;2024-03-08T09:29:10;10.90;67.80
10538;DHT22;5317;49.048;8.468;2024-03-08T09:31:37;11.00;67.60
10538;DHT22;5317;49.048;8.468;2024-03-08T09:34:06;11.00;67.30
10538;DHT22;5317;49.048;8.468;2024-03-08T09:36:34;11.10;67.60
10538;DHT22;5317;49.048;8.468;2024-03-08T09:39:01;11.10;67.30
10538;DHT22;5317;49.048;8.468;2024-03-08T09:41:28;11.20;67.50
10538;DHT22;5317;49.048;8.468;2024-03-08T09:43:56;11.10;67.40
10538;DHT22;5317;49.048;8.468;2024-03-08T09:46:25;11.10;67.30
10538;DHT22;5317;49.048;8.468;2024-03-08T09:48:52;11.20;67.50
10538;DHT22;5317;49.048;8.468;2024-03-08T09:51:22;11.30;67.10
10538;DHT22;5317;49.048;8.468;2024-03-08T09:53:53;11.40;67.00
10538;DHT22;5317;49.048;8.468;2024-03-08T09:56:20;11.40;67.20
10538;DHT22;5317;49.048;8.468;2024-03-08T09:58:49;11.60;67.20
10538;DHT22;5317;49.048;8.468;2024-03-08T10:01:40;11.60;67.10
10538;DHT22;5317;49.048;8.468;2024-03-08T10:04:07;11.80;67.20
10538;DHT22;5317;49.048;8.468;2024-03-08T10:06:36;11.90;66.40
10538;DHT22;5317;49.048;8.468;2024-03-08T10:09:03;11.90;66.30
10538;DHT22;5317;49.048;8.468;2024-03-08T10:11:31;11.90;66.20
10538;DHT22;5317;49.048;8.468;2024-03-08T10:13:59;12.10;65.70
10538;DHT22;5317;49.048;8.468;2024-03-08T10:16:27;12.10;65.80
10538;DHT22;5317;49.048;8.468;2024-03-08T10:18:56;12.20;65.60
10538;DHT22;5317;49.048;8.468;2024-03-08T10:21:23;12.20;65.20
10538;DHT22;5317;49.048;8.468;2024-03-08T10:23:52;12.20;65.20
10538;DHT22;5317;49.048;8.468;2024-03-08T10:26:19;12.40;65.70
10538;DHT22;5317;49.048;8.468;2024-03-08T10:28:48;12.50;65.30
10538;DHT22;5317;49.048;8.468;2024-03-08T10:31:15;12.60;65.30
10538;DHT22;5317;49.048;8.468;2024-03-08T10:33:43;12.70;65.30
10538;DHT22;5317;49.048;8.468;2024-03-08T10:36:10;12.70;64.50
10538;DHT22;5317;49.048;8.468;2024-03-08T10:38:39;12.60;64.60
10538;DHT22;5317;49.048;8.468;2024-03-08T10:41:09;12.80;65.30
10538;DHT22;5317;49.048;8.468;2024-03-08T10:43:51;13.00;64.80
10538;DHT22;5317;49.048;8.468;2024-03-08T10:46:29;13.10;64.60
10538;DHT22;5317;49.048;8.468;2024-03-08T10:48:58;13.20;64.50
10538;DHT22;5317;49.048;8.468;2024-03-08T10:51:29;13.30;64.40
10538;DHT22;5317;49.048;8.468;2024-03-08T10:53:57;13.50;63.60
10538;DHT22;5317;49.048;8.468;2024-03-08T10:56:30;13.40;63.00
10538;DHT22;5317;49.048;8.468;2024-03-08T10:58:56;13.40;63.20
10538;DHT22;5317;49.048;8.468;2024-03-08T11:01:24;13.50;63.40
10538;DHT22;5317;49.048;8.468;2024-03-08T11:03:51;13.50;63.10
10538;DHT22;5317;49.048;8.468;2024-03-08T11:06:29;13.70;63.40
10538;DHT22;5317;49.048;8.468;2024-03-08T11:08:56;13.70;63.20
10538;DHT22;5317;49.048;8.468;2024-03-08T11:11:25;13.80;62.60
10538;DHT22;5317;49.048;8.468;2024-03-08T11:13:58;13.90;62.10
10538;DHT22;5317;49.048;8.468;2024-03-08T11:16:38;13.90;61.60
10538;DHT22;5317;49.048;8.468;2024-03-08T11:19:24;13.80;61.50
10538;DHT22;5317;49.048;8.468;2024-03-08T11:21:58;13.80;61.60
10538;DHT22;5317;49.048;8.468;2024-03-08T11:24:25;13.90;61.80
10538;DHT22;5317;49.048;8.468;2024-03-08T11:26:57;13.90;61.20
10538;DHT22;5317;49.048;8.468;2024-03-08T11:29:37;14.00;61.10
10538;DHT22;5317;49.048;8.468;2024-03-08T11:32:09;14.00;60.80
10538;DHT22;5317;49.048;8.468;2024-03-08T11:34:37;14.00;61.00
10538;DHT22;5317;49.048;8.468;2024-03-08T11:37:05;13.90;61.40
10538;DHT22;5317;49.048;8.468;2024-03-08T11:39:35;13.90;60.90
10538;DHT22;5317;49.048;8.468;2024-03-08T11:42:04;13.90;60.40
10538;DHT22;5317;49.048;8.468;2024-03-08T11:44:32;13.90;60.50
10538;DHT22;5317;49.048;8.468;2024-03-08T11:47:00;13.90;60.50
10538;DHT22;5317;49.048;8.468;2024-03-08T11:49:32;14.10;61.10
10538;DHT22;5317;49.048;8.468;2024-03-08T11:51:59;14.30;61.00
10538;DHT22;5317;49.048;8.468;2024-03-08T11:54:26;14.30;60.40
10538;DHT22;5317;49.048;8.468;2024-03-08T11:56:55;14.40;60.60
10538;DHT22;5317;49.048;8.468;2024-03-08T11:59:26;14.50;60.20
10538;DHT22;5317;49.048;8.468;2024-03-08T12:02:02;14.60;60.00
10538;DHT22;5317;49.048;8.468;2024-03-08T12:04:29;14.70;59.80
10538;DHT22;5317;49.048;8.468;2024-03-08T12:06:59;14.90;59.80
10538;DHT22;5317;49.048;8.468;2024-03-08T12:09:27;14.90;59.30
10538;DHT22;5317;49.048;8.468;2024-03-08T12:11:54;15.00;59.60
10538;DHT22;5317;49.048;8.468;2024-03-08T12:14:21;15.10;59.30
10538;DHT22;5317;49.048;8.468;2024-03-08T12:16:50;15.20;59.40
10538;DHT22;5317;49.048;8.468;2024-03-08T12:19:19;15.30;59.00
10538;DHT22;5317;49.048;8.468;2024-03-08T12:21:46;15.20;58.40
10538;DHT22;5317;49.048;8.468;2024-03-08T12:24:16;15.30;59.00
10538;DHT22;5317;49.048;8.468;2024-03-08T12:26:45;15.60;59.10
10538;DHT22;5317;49.048;8.468;2024-03-08T12:29:20;15.70;57.90
10538;DHT22;5317;49.048;8.468;2024-03-08T12:31:50;15.70;58.00
10538;DHT22;5317;49.048;8.468;2024-03-08T12:34:19;15.80;57.50
10538;DHT22;5317;49.048;8.468;2024-03-08T12:36:47;15.90;57.50
10538;DHT22;5317;49.048;8.468;2024-03-08T12:39:16;16.10;57.70
10538;DHT22;5317;49.048;8.468;2024-03-08T12:41:47;16.20;56.80
10538;DHT22;5317;49.048;8.468;2024-03-08T12:44:15;16.10;56.90
10538;DHT22;5317;49.048;8.468;2024-03-08T12:46:44;16.30;56.70
10538;DHT22;5317;49.048;8.468;2024-03-08T12:49:11;16.30;56.10
10538;DHT22;5317;49.048;8.468;2024-03-08T12:51:39;16.50;56.10
10538;DHT22;5317;49.048;8.468;2024-03-08T12:54:07;16.60;56.50
10538;DHT22;5317;49.048;8.468;2024-03-08T12:56:35;16.70;56.30
10538;DHT22;5317;49.048;8.468;2024-03-08T12:59:03;17.00;56.20
10538;DHT22;5317;49.048;8.468;2024-03-08T13:01:31;17.20;56.10
10538;DHT22;5317;49.048;8.468;2024-03-08T13:03:59;17.40;55.90
10538;DHT22;5317;49.048;8.468;2024-03-08T13:06:27;17.60;55.40
10538;DHT22;5317;49.048;8.468;2024-03-08T13:08:56;17.70;55.30
10538;DHT22;5317;49.048;8.468;2024-03-08T13:11:24;17.80;54.40
10538;DHT22;5317;49.048;8.468;2024-03-08T13:13:51;18.00;54.80
10538;DHT22;5317;49.048;8.468;2024-03-08T13:16:19;18.00;54.50
10538;DHT22;5317;49.048;8.468;2024-03-08T13:18:46;18.10;54.60
10538;DHT22;5317;49.048;8.468;2024-03-08T13:21:15;18.30;54.70
10538;DHT22;5317;49.048;8.468;2024-03-08T13:23:45;18.50;53.90
10538;DHT22;5317;49.048;8.468;2024-03-08T13:26:16;18.60;53.70
10538;DHT22;5317;49.048;8.468;2024-03-08T13:28:43;18.80;53.40
10538;DHT22;5317;49.048;8.468;2024-03-08T13:31:11;19.00;53.60
10538;DHT22;5317;49.048;8.468;2024-03-08T13:33:41;19.20;52.70
10538;DHT22;5317;49.048;8.468;2024-03-08T13:36:11;19.40;52.80
10538;DHT22;5317;49.048;8.468;2024-03-08T13:38:41;19.60;52.50
10538;DHT22;5317;49.048;8.468;2024-03-08T13:41:08;19.60;51.30
10538;DHT22;5317;49.048;8.468;2024-03-08T13:43:38;19.80;51.70
10538;DHT22;5317;49.048;8.468;2024-03-08T13:46:06;20.00;51.10
10538;DHT22;5317;49.048;8.468;2024-03-08T13:48:33;20.30;51.30
10538;DHT22;5317;49.048;8.468;2024-03-08T13:51:00;20.60;50.50
10538;DHT22;5317;49.048;8.468;2024-03-08T13:53:26;20.90;49.90
10538;DHT22;5317;49.048;8.468;2024-03-08T13:55:53;21.30;50.20
10538;DHT22;5317;49.048;8.468;2024-03-08T13:58:20;21.80;49.60
10538;DHT22;5317;49.048;8.468;2024-03-08T14:00:49;22.40;48.60
10538;DHT22;5317;49.048;8.468;2024-03-08T14:03:17;23.00;47.20
10538;DHT22;5317;49.048;8.468;2024-03-08T14:05:44;23.90;47.20
10538;DHT22;5317;49.048;8.468;2024-03-08T14:08:12;25.20;46.00
10538;DHT22;5317;49.048;8.468;2024-03-08T14:10:39;27.00;44.10
10538;DHT22;5317;49.048;8.468;2024-03-08T14:13:07;28.80;41.10
10538;DHT22;5317;49.048;8.468;2024-03-08T14:15:34;30.30;38.90
10538;DHT22;5317;49.048;8.468;2024-03-08T14:18:03;31.60;37.10
10538;DHT22;5317;49.048;8.468;2024-03-08T14:20:32;32.60;34.80
10538;DHT22;5317;49.048;8.468;2024-03-08T14:22:59;33.40;32.90
10538;DHT22;5317;49.048;8.468;2024-03-08T14:25:26;33.80;32.80
10538;DHT22;5317;49.048;8.468;2024-03-08T14:27:55;34.80;31.70
10538;DHT22;5317;49.048;8.468;2024-03-08T14:30:27;35.90;30.20
10538;DHT22;5317;49.048;8.468;2024-03-08T14:33:00;36.80;29.30
10538;DHT22;5317;49.048;8.468;2024-03-08T14:35:29;37.90;28.50
10538;DHT22;5317;49.048;8.468;2024-03-08T14:37:56;38.70;27.00
10538;DHT22;5317;49.048;8.468;2024-03-08T14:40:23;39.40;26.80
10538;DHT22;5317;49.048;8.468;2024-03-08T14:42:51;40.00;26.20
10538;DHT22;5317;49.048;8.468;2024-03-08T14:45:18;40.60;25.80
10538;DHT22;5317;49.048;8.468;2024-03-08T14:47:52;41.10;25.20
10538;DHT22;5317;49.048;8.468;2024-03-08T14:50:22;41.60;24.10
10538;DHT22;5317;49.048;8.468;2024-03-08T14:52:50;42.00;24.40
10538;DHT22;5317;49.048;8.468;2024-03-08T14:55:18;42.20;24.00
10538;DHT22;5317;49.048;8.468;2024-03-08T14:57:47;42.30;23.70
10538;DHT22;5317;49.048;8.468;2024-03-08T15:00:17;42.30;23.50
10538;DHT22;5317;49.048;8.468;2024-03-08T15:02:52;42.30;23.20
10538;DHT22;5317;49.048;8.468;2024-03-08T15:05:19;42.30;23.10
10538;DHT22;5317;49.048;8.468;2024-03-08T15:07:47;42.20;23.20
10538;DHT22;5317;49.048;8.468;2024-03-08T15:10:16;42.10;23.00
10538;DHT22;5317;49.048;8.468;2024-03-08T15:12:46;41.90;22.60
10538;DHT22;5317;49.048;8.468;2024-03-08T15:15:13;41.60;22.90
10538;DHT22;5317;49.048;8.468;2024-03-08T15:17:43;41.50;23.00
10538;DHT22;5317;49.048;8.468;2024-03-08T15:20:12;41.30;23.00
10538;DHT22;5317;49.048;8.468;2024-03-08T15:22:42;41.10;23.00
10538;DHT22;5317;49.048;8.468;2024-03-08T15:25:10;40.60;22.90
10538;DHT22;5317;49.048;8.468;2024-03-08T15:27:44;39.80;23.10
10538;DHT22;5317;49.048;8.468;2024-03-08T15:30:11;38.80;23.30
10538;DHT22;5317;49.048;8.468;2024-03-08T15:32:39;37.40;23.90
10538;DHT22;5317;49.048;8.468;2024-03-08T15:35:10;36.10;24.30
10538;DHT22;5317;49.048;8.468;2024-03-08T15:37:40;34.50;25.00
10538;DHT22;5317;49.048;8.468;2024-03-08T15:40:09;33.10;25.80
10538;DHT22;5317;49.048;8.468;2024-03-08T15:42:48;31.90;26.50
10538;DHT22;5317;49.048;8.468;2024-03-08T15:45:16;31.00;27.10
10538;DHT22;5317;49.048;8.468;2024-03-08T15:47:43;30.60;27.30
10538;DHT22;5317;49.048;8.468;2024-03-08T15:50:10;30.20;27.80
10538;DHT22;5317;49.048;8.468;2024-03-08T15:52:39;29.40;28.30
10538;DHT22;5317;49.048;8.468;2024-03-08T15:55:07;28.20;29.10
10538;DHT22;5317;49.048;8.468;2024-03-08T15:57:34;27.10;30.00